Time;durP1;ratioP1;P1;durP2;ratioP2;P2;SDS_P1;SDS_P2;PMS_P1;PMS_P2;Temp;Humidity;BMP_temperature;BMP_pressure;BME280_temperature;BME280_humidity;BME280_pressure;Samples;Min_cycle;Max_cycle;Signal;HPM_P1;HPM_P2
2021/11/08 00:03:33;;;;;;;4.03;1.30;;;17.50;60.40;;;;;;10441444;28;20280;-65
2021/11/08 00:08:55;;;;;;;3.17;1.47;;;17.50;60.50;;;;;;10451586;28;20201;-65
2021/11/08 00:14:20;;;;;;;4.63;1.57;;;17.50;60.30;;;;;;10430434;28;20638;-64
2021/11/08 00:25:20;;;;;;;6.83;2.13;;;17.50;60.40;;;;;;10410847;28;20610;-64
2021/11/08 00:30:43;;;;;;;4.33;1.60;;;17.50;60.40;;;;;;10408996;28;20714;-63
2021/11/08 00:36:07;;;;;;;4.73;1.30;;;17.50;60.30;;;;;;10409032;28;20224;-64
2021/11/08 00:41:29;;;;;;;4.93;1.80;;;17.50;60.40;;;;;;10415849;28;20201;-64
2021/11/08 00:46:52;;;;;;;5.17;1.73;;;17.50;60.40;;;;;;10409256;28;20221;-64
2021/11/08 00:52:15;;;;;;;5.57;1.60;;;17.50;60.30;;;;;;10409980;28;20307;-63
2021/11/08 00:57:39;;;;;;;7.77;1.93;;;17.50;60.30;;;;;;10449701;28;20243;-63
2021/11/08 01:03:05;;;;;;;7.20;1.70;;;17.50;60.40;;;;;;10427575;28;20189;-63
2021/11/08 01:08:28;;;;;;;7.73;1.97;;;17.50;60.20;;;;;;10412131;28;20217;-63
2021/11/08 01:13:50;;;;;;;6.17;1.83;;;17.50;60.20;;;;;;10430337;28;20213;-65
2021/11/08 01:19:14;;;;;;;6.83;1.40;;;17.50;60.30;;;;;;10427576;28;20205;-64
2021/11/08 01:24:39;;;;;;;3.63;1.43;;;17.40;60.20;;;;;;10437425;28;20678;-64
2021/11/08 01:30:02;;;;;;;5.20;1.50;;;17.50;60.20;;;;;;10416148;28;20209;-63
2021/11/08 01:35:31;;;;;;;4.50;1.63;;;17.50;60.20;;;;;;10416968;28;20236;-63
2021/11/08 01:40:56;;;;;;;4.93;1.77;;;17.50;60.10;;;;;;10425252;28;20190;-63
2021/11/08 01:46:19;;;;;;;3.67;1.70;;;17.40;60.20;;;;;;10452496;28;20248;-63
2021/11/08 01:51:42;;;;;;;7.47;1.87;;;17.50;60.70;;;;;;10456671;28;20682;-64
2021/11/08 01:57:07;;;;;;;4.57;1.33;;;17.50;60.10;;;;;;10457023;28;20228;-64
2021/11/08 02:02:29;;;;;;;3.97;1.53;;;17.40;60.10;;;;;;10455799;28;20276;-64
2021/11/08 02:07:51;;;;;;;4.63;1.40;;;17.50;60.20;;;;;;10417020;28;20222;-61
2021/11/08 02:13:15;;;;;;;5.20;1.40;;;17.50;60.10;;;;;;10414210;28;20230;-63
2021/11/08 02:18:39;;;;;;;3.67;1.37;;;17.50;60.20;;;;;;10414396;28;20213;-64
2021/11/08 02:24:04;;;;;;;5.33;1.50;;;17.50;60.20;;;;;;10413690;28;20197;-64
2021/11/08 02:29:27;;;;;;;3.30;1.23;;;17.50;60.10;;;;;;10466954;22;20758;-59
2021/11/08 02:34:49;;;;;;;4.67;1.63;;;17.50;60.00;;;;;;10464532;28;20220;-60
2021/11/08 02:40:18;;;;;;;3.27;1.20;;;17.50;60.00;;;;;;10423795;28;20562;-61
2021/11/08 02:45:41;;;;;;;4.23;1.50;;;17.50;60.10;;;;;;10453457;28;20221;-62
2021/11/08 02:51:11;;;;;;;6.47;1.70;;;17.50;60.00;;;;;;10452789;28;20220;-60
2021/11/08 02:56:35;;;;;;;3.73;1.10;;;17.40;60.10;;;;;;10438811;28;20213;-61
2021/11/08 03:01:57;;;;;;;3.97;1.47;;;17.50;60.10;;;;;;10421303;28;20212;-63
2021/11/08 03:07:20;;;;;;;5.47;1.77;;;17.50;60.20;;;;;;10420916;28;20224;-63
2021/11/08 03:12:46;;;;;;;6.93;1.70;;;17.40;60.10;;;;;;10432953;28;20221;-60
2021/11/08 03:18:12;;;;;;;4.53;1.20;;;17.40;60.00;;;;;;10415447;28;20235;-58
2021/11/08 03:23:34;;;;;;;6.17;1.43;;;17.40;60.10;;;;;;10448621;28;20189;-60
2021/11/08 03:28:58;;;;;;;5.17;1.33;;;17.40;60.10;;;;;;10412359;28;20210;-60
2021/11/08 03:34:21;;;;;;;4.90;1.53;;;17.40;60.10;;;;;;10412150;28;20225;-59
2021/11/08 03:39:43;;;;;;;4.43;1.40;;;17.40;60.10;;;;;;10417741;28;20276;-57
2021/11/08 03:45:08;;;;;;;6.17;1.50;;;17.40;60.10;;;;;;10440338;28;20213;-60
2021/11/08 03:50:31;;;;;;;5.77;1.40;;;17.40;60.00;;;;;;10411587;28;20201;-60
2021/11/08 03:55:53;;;;;;;5.30;1.70;;;17.40;60.00;;;;;;10410069;28;20225;-60
2021/11/08 04:01:17;;;;;;;3.87;1.40;;;17.40;60.00;;;;;;10410240;28;20204;-60
2021/11/08 04:06:41;;;;;;;5.97;1.73;;;17.40;60.10;;;;;;10409580;28;20225;-60
2021/11/08 04:12:03;;;;;;;5.83;1.80;;;17.40;59.90;;;;;;10410466;28;20224;-60
2021/11/08 04:17:28;;;;;;;7.27;2.00;;;17.40;59.70;;;;;;10410506;28;20317;-60
2021/11/08 04:22:52;;;;;;;6.07;1.37;;;17.40;59.80;;;;;;10410874;28;20266;-60
2021/11/08 04:28:15;;;;;;;4.13;1.40;;;17.40;59.80;;;;;;10408892;28;20222;-62
2021/11/08 04:33:45;;;;;;;4.00;1.60;;;17.40;59.70;;;;;;10417834;28;20666;-60
2021/11/08 04:39:21;;;;;;;6.80;1.70;;;17.40;59.70;;;;;;10412458;28;20201;-64
2021/11/08 04:45:04;;;;;;;5.53;1.63;;;17.40;59.60;;;;;;10450633;28;20674;-61
2021/11/08 04:50:33;;;;;;;7.83;1.60;;;17.50;59.20;;;;;;10449765;28;20193;-61
2021/11/08 05:24:23;;;;;;;7.63;2.07;;;17.70;58.30;;;;;;10409966;28;20298;-61
2021/11/08 05:35:31;;;;;;;5.87;1.40;;;17.60;58.80;;;;;;10403456;28;20344;-61
2021/11/08 05:40:55;;;;;;;6.73;1.80;;;17.60;59.00;;;;;;10432119;28;20201;-61
2021/11/08 05:46:19;;;;;;;5.03;1.40;;;17.50;59.10;;;;;;10411279;28;20221;-62
2021/11/08 05:51:42;;;;;;;6.23;1.70;;;17.50;59.30;;;;;;10407427;28;20278;-60
2021/11/08 05:57:30;;;;;;;6.20;1.90;;;17.50;59.40;;;;;;10429446;28;20698;-62
2021/11/08 06:53:59;;;;;;;5.47;1.37;;;17.80;57.70;;;;;;10449389;28;20286;-62
2021/11/08 06:59:24;;;;;;;5.43;1.33;;;17.70;58.10;;;;;;10448926;28;20220;-62
2021/11/08 07:04:48;;;;;;;2.87;1.40;;;17.70;58.20;;;;;;10446286;28;20571;-61
2021/11/08 07:10:10;;;;;;;3.63;1.60;;;17.60;58.40;;;;;;10446784;28;20666;-61
2021/11/08 07:15:33;;;;;;;4.93;1.60;;;17.60;58.60;;;;;;10446901;28;20221;-61
2021/11/08 07:20:56;;;;;;;4.13;1.43;;;17.60;58.80;;;;;;10446229;28;20196;-61
2021/11/08 07:26:18;;;;;;;4.23;1.50;;;17.60;58.90;;;;;;10447390;28;20236;-61
2021/11/08 07:31:41;;;;;;;4.23;1.53;;;17.60;59.10;;;;;;10450087;28;20699;-61
2021/11/08 07:37:06;;;;;;;4.07;1.13;;;17.50;59.10;;;;;;10436239;28;20232;-61
2021/11/08 07:42:28;;;;;;;2.87;1.20;;;17.50;59.10;;;;;;10421747;28;20201;-61
2021/11/08 07:47:50;;;;;;;3.67;1.10;;;17.50;58.90;;;;;;10423246;28;20580;-60
2021/11/08 07:53:14;;;;;;;6.53;1.93;;;17.60;59.00;;;;;;10431161;28;20401;-60
2021/11/08 07:58:38;;;;;;;5.33;1.70;;;17.60;59.10;;;;;;10418427;28;20229;-61
2021/11/08 08:04:00;;;;;;;5.60;1.30;;;17.60;58.60;;;;;;10416612;28;20233;-61
2021/11/08 08:09:23;;;;;;;4.03;1.40;;;17.70;58.60;;;;;;10425573;28;20193;-61
2021/11/08 08:14:46;;;;;;;3.87;1.33;;;17.70;58.70;;;;;;10442506;28;20492;-60
2021/11/08 08:20:11;;;;;;;3.73;1.40;;;17.70;58.80;;;;;;10427254;28;20197;-61
2021/11/08 08:25:35;;;;;;;3.50;1.40;;;17.70;59.30;;;;;;10411942;28;20220;-61
2021/11/08 08:30:58;;;;;;;3.50;1.10;;;17.60;59.50;;;;;;10424449;28;20220;-61
2021/11/08 08:36:20;;;;;;;2.97;1.33;;;17.60;59.70;;;;;;10415631;28;20233;-61
2021/11/08 08:41:45;;;;;;;5.27;1.40;;;17.60;60.00;;;;;;10425766;28;20212;-61
2021/11/08 08:47:07;;;;;;;4.10;1.37;;;17.60;60.10;;;;;;10435575;28;20213;-61
2021/11/08 08:52:30;;;;;;;4.67;1.20;;;17.60;60.30;;;;;;10418891;28;20227;-61
2021/11/08 08:57:54;;;;;;;3.37;1.30;;;17.50;60.30;;;;;;10414867;28;20218;-61
2021/11/08 09:03:17;;;;;;;8.70;1.43;;;17.50;60.30;;;;;;10436574;28;20200;-61
2021/11/08 09:08:39;;;;;;;5.67;1.40;;;17.60;60.20;;;;;;10409443;28;20225;-61
2021/11/08 09:14:04;;;;;;;6.00;1.53;;;17.60;59.60;;;;;;10433220;28;20224;-61
2021/11/08 09:19:27;;;;;;;3.97;1.53;;;17.70;59.50;;;;;;10434869;28;20574;-60
2021/11/08 09:24:49;;;;;;;6.53;1.20;;;17.70;59.30;;;;;;10429699;28;20224;-61
2021/11/08 09:30:15;;;;;;;3.80;1.50;;;17.70;59.20;;;;;;10417798;28;20205;-60
2021/11/08 09:35:44;;;;;;;4.70;1.30;;;17.70;59.30;;;;;;10430519;28;20222;-60
2021/11/08 09:41:12;;;;;;;4.53;1.60;;;17.70;59.40;;;;;;10442974;28;20190;-60
2021/11/08 09:46:36;;;;;;;2.67;1.23;;;17.60;59.50;;;;;;10444251;28;20209;-61
2021/11/08 09:52:01;;;;;;;4.67;1.63;;;17.50;59.80;;;;;;10438126;28;20196;-61
2021/11/08 09:57:24;;;;;;;6.50;1.53;;;17.60;60.00;;;;;;10439987;28;20214;-61
2021/11/08 10:02:53;;;;;;;5.23;1.50;;;17.50;60.70;;;;;;10419793;28;20193;-61
2021/11/08 10:08:18;;;;;;;4.43;1.33;;;17.50;60.20;;;;;;10434916;28;20706;-61
2021/11/08 10:13:41;;;;;;;4.73;1.50;;;17.50;60.00;;;;;;10432603;28;20292;-61
2021/11/08 10:19:07;;;;;;;3.40;1.50;;;17.50;59.80;;;;;;10429703;28;20204;-61
2021/11/08 10:24:32;;;;;;;4.03;1.30;;;17.50;59.70;;;;;;10431947;28;20212;-61
2021/11/08 10:29:55;;;;;;;3.10;1.13;;;17.60;60.30;;;;;;10425396;28;20210;-61
2021/11/08 10:35:18;;;;;;;6.53;1.67;;;17.60;59.40;;;;;;10428438;28;20347;-61
2021/11/08 10:40:46;;;;;;;5.37;1.80;;;17.60;59.70;;;;;;10425281;28;20198;-59
2021/11/08 10:46:11;;;;;;;4.73;1.43;;;17.60;60.00;;;;;;10439027;28;20213;-61
2021/11/08 10:51:38;;;;;;;4.30;1.60;;;17.60;60.00;;;;;;10434770;28;20221;-61
2021/11/08 10:57:02;;;;;;;6.73;1.80;;;17.60;60.00;;;;;;10421474;28;20217;-61
2021/11/08 11:02:26;;;;;;;6.57;1.73;;;17.60;60.10;;;;;;10438032;28;20189;-61
2021/11/08 11:07:53;;;;;;;3.63;1.40;;;17.60;60.20;;;;;;10420292;28;20221;-61
2021/11/08 11:13:17;;;;;;;5.70;1.73;;;17.60;60.10;;;;;;10424902;28;20214;-60
2021/11/08 11:18:39;;;;;;;5.87;2.07;;;17.60;59.90;;;;;;10435299;28;20216;-61
2021/11/08 11:24:05;;;;;;;6.33;1.53;;;17.60;59.70;;;;;;10419372;28;20202;-61
2021/11/08 11:29:29;;;;;;;4.43;1.60;;;17.60;59.50;;;;;;10489169;22;20231;-68
2021/11/08 11:34:52;;;;;;;5.20;1.40;;;17.70;59.30;;;;;;10486403;28;20217;-69
2021/11/08 11:40:16;;;;;;;5.93;1.60;;;17.80;59.00;;;;;;10486936;28;20216;-69
2021/11/08 11:45:47;;;;;;;6.50;2.07;;;17.80;58.90;;;;;;10449553;28;20189;-69
2021/11/08 11:51:16;;;;;;;4.10;1.40;;;17.80;58.80;;;;;;10459367;28;20687;-69
2021/11/08 11:56:41;;;;;;;5.83;1.70;;;17.80;59.10;;;;;;10479935;28;20212;-69
2021/11/08 12:02:04;;;;;;;6.40;1.93;;;17.80;59.50;;;;;;10469560;28;20217;-69
2021/11/08 12:07:26;;;;;;;6.33;2.20;;;17.70;60.00;;;;;;10508071;28;20189;-70
2021/11/08 12:12:50;;;;;;;4.27;1.63;;;17.70;60.40;;;;;;10508998;28;20266;-72
2021/11/08 12:18:16;;;;;;;4.73;1.53;;;17.70;60.80;;;;;;10470898;28;20227;-69
2021/11/08 12:23:38;;;;;;;5.90;1.97;;;17.70;61.00;;;;;;10469370;28;20671;-68
2021/11/08 12:29:12;;;;;;;3.70;1.70;;;17.70;60.90;;;;;;10479642;28;20231;-68
2021/11/08 12:34:40;;;;;;;4.53;1.60;;;17.70;60.80;;;;;;10466875;28;20677;-67
2021/11/08 12:40:06;;;;;;;3.80;1.30;;;17.70;61.90;;;;;;10450945;28;20217;-68
2021/11/08 12:45:37;;;;;;;5.13;1.63;;;17.80;62.30;;;;;;10442938;28;20703;-67
2021/11/08 12:51:02;;;;;;;4.53;1.40;;;17.90;61.30;;;;;;10446266;28;20221;-67
2021/11/08 12:56:26;;;;;;;5.93;1.53;;;17.90;60.40;;;;;;10442073;28;20223;-66
2021/11/08 13:01:53;;;;;;;3.97;1.50;;;18.00;60.00;;;;;;10441765;28;20588;-66
2021/11/08 13:07:17;;;;;;;6.10;1.70;;;18.00;60.00;;;;;;10456354;28;20189;-65
2021/11/08 13:12:42;;;;;;;6.80;1.80;;;18.00;60.00;;;;;;10454174;28;20208;-66
2021/11/08 13:18:08;;;;;;;4.47;1.67;;;17.90;60.20;;;;;;10460471;28;20227;-66
2021/11/08 13:23:34;;;;;;;4.57;1.40;;;17.90;60.50;;;;;;10458426;28;20650;-65
2021/11/08 13:28:56;;;;;;;4.70;1.50;;;17.80;60.80;;;;;;10465848;28;20228;-66
2021/11/08 13:34:19;;;;;;;5.23;1.47;;;17.80;61.20;;;;;;10452367;28;20220;-65
2021/11/08 13:39:43;;;;;;;3.57;1.47;;;17.80;61.40;;;;;;10458440;28;20216;-65
2021/11/08 13:45:05;;;;;;;4.23;1.57;;;17.80;61.50;;;;;;10468481;28;20201;-65
2021/11/08 13:50:38;;;;;;;4.20;1.87;;;17.70;61.80;;;;;;10444281;28;20218;-65
2021/11/08 13:56:04;;;;;;;4.93;1.57;;;17.70;62.40;;;;;;10447010;28;20228;-65
2021/11/08 14:01:30;;;;;;;4.27;1.40;;;17.70;61.90;;;;;;10449331;28;20231;-68
2021/11/08 14:06:54;;;;;;;4.67;1.40;;;17.70;61.90;;;;;;10456715;28;20193;-68
2021/11/08 14:12:18;;;;;;;4.63;1.67;;;17.80;61.60;;;;;;10451676;28;20272;-68
2021/11/08 14:17:42;;;;;;;3.57;1.47;;;17.90;61.30;;;;;;10457407;28;20222;-68
2021/11/08 14:23:06;;;;;;;4.27;1.40;;;17.90;61.20;;;;;;10450562;28;20618;-68
2021/11/08 14:28:28;;;;;;;4.27;1.57;;;18.00;61.10;;;;;;10459149;28;20229;-68
2021/11/08 14:33:52;;;;;;;4.77;1.63;;;18.00;61.00;;;;;;10463890;28;20204;-68
2021/11/08 14:39:18;;;;;;;4.07;1.53;;;18.00;61.00;;;;;;10475553;28;20217;-67
2021/11/08 14:44:42;;;;;;;3.70;1.87;;;18.10;61.10;;;;;;10460530;28;20197;-68
2021/11/08 14:50:07;;;;;;;6.30;2.33;;;18.10;61.20;;;;;;10469680;28;20227;-68
2021/11/08 14:55:32;;;;;;;5.20;2.17;;;18.10;61.30;;;;;;10446043;28;20802;-67
2021/11/08 15:00:55;;;;;;;4.60;1.63;;;18.00;61.50;;;;;;10434784;28;20217;-67
2021/11/08 15:06:17;;;;;;;2.93;1.13;;;17.90;61.70;;;;;;10445325;28;20582;-66
2021/11/08 15:11:43;;;;;;;4.23;1.50;;;17.90;61.80;;;;;;10443491;28;20228;-67
2021/11/08 15:17:05;;;;;;;2.73;1.10;;;17.90;62.00;;;;;;10458657;28;20244;-67
2021/11/08 15:22:29;;;;;;;3.20;1.47;;;17.90;62.20;;;;;;10471623;28;20774;-67
2021/11/08 15:28:06;;;;;;;2.20;1.10;;;17.90;62.50;;;;;;10458761;28;20243;-67
2021/11/08 15:33:29;;;;;;;3.27;1.40;;;17.90;62.50;;;;;;10471453;28;20224;-67
2021/11/08 15:38:54;;;;;;;2.80;1.23;;;17.90;62.70;;;;;;10469099;28;20639;-68
2021/11/08 15:44:18;;;;;;;4.07;1.53;;;17.80;62.90;;;;;;10478925;28;20208;-67
2021/11/08 15:49:40;;;;;;;2.83;1.50;;;17.80;63.10;;;;;;10462765;28;20209;-67
2021/11/08 15:55:02;;;;;;;5.70;1.97;;;17.80;63.10;;;;;;10464603;28;20216;-67
2021/11/08 16:00:26;;;;;;;5.10;1.73;;;17.80;62.80;;;;;;10463898;28;20695;-67
2021/11/08 16:05:49;;;;;;;4.67;1.40;;;17.90;62.50;;;;;;10464622;28;20196;-68
2021/11/08 16:11:11;;;;;;;6.30;1.40;;;18.00;62.30;;;;;;10475218;28;20538;-68
2021/11/08 16:16:35;;;;;;;3.30;1.80;;;18.00;62.00;;;;;;10464969;28;20217;-66
2021/11/08 16:21:57;;;;;;;4.93;2.50;;;18.10;62.00;;;;;;10453174;28;20704;-67
2021/11/08 16:27:19;;;;;;;4.73;2.03;;;18.10;62.10;;;;;;10468869;28;20212;-67
2021/11/08 16:32:59;;;;;;;4.43;1.63;;;18.10;62.20;;;;;;10479381;28;20205;-68
2021/11/08 16:38:23;;;;;;;5.37;1.60;;;18.10;62.20;;;;;;10463479;28;20743;-67
2021/11/08 16:43:48;;;;;;;3.07;1.70;;;18.10;62.40;;;;;;10445584;28;20216;-67
2021/11/08 16:49:11;;;;;;;4.80;2.10;;;18.10;62.50;;;;;;10477466;28;20220;-70
2021/11/08 16:54:34;;;;;;;4.27;2.50;;;18.00;62.50;;;;;;10464870;28;20220;-68
2021/11/08 16:59:57;;;;;;;2.83;2.00;;;18.00;62.60;;;;;;10450890;28;20208;-69
2021/11/08 17:05:24;;;;;;;3.10;1.60;;;18.00;62.60;;;;;;10452104;28;20185;-69
2021/11/08 17:11:02;;;;;;;3.43;2.53;;;18.00;62.70;;;;;;10449908;28;20223;-68
2021/11/08 17:16:25;;;;;;;4.77;3.00;;;17.90;62.70;;;;;;10448792;28;20704;-68
2021/11/08 17:21:49;;;;;;;4.67;2.13;;;17.90;62.80;;;;;;10451588;28;20247;-69
2021/11/08 17:27:16;;;;;;;5.23;2.53;;;17.90;62.90;;;;;;10410541;28;20561;-68
2021/11/08 17:32:39;;;;;;;4.30;1.83;;;17.90;63.00;;;;;;10447583;22;20750;-69
2021/11/08 17:38:03;;;;;;;4.20;1.60;;;17.90;63.00;;;;;;10476257;28;20227;-67
2021/11/08 17:43:25;;;;;;;3.00;1.87;;;17.80;63.00;;;;;;10468908;28;20663;-66
2021/11/08 17:48:47;;;;;;;4.83;1.90;;;17.90;63.00;;;;;;10451126;28;20193;-67
2021/11/08 17:54:12;;;;;;;3.20;1.73;;;17.90;62.60;;;;;;10434796;28;20229;-67
2021/11/08 17:59:35;;;;;;;17.63;10.67;;;18.00;62.40;;;;;;10408915;28;20194;-66
2021/11/08 18:04:57;;;;;;;11.03;6.40;;;18.00;62.20;;;;;;10415405;28;20217;-66
2021/11/08 18:10:23;;;;;;;6.83;4.60;;;18.00;62.10;;;;;;10413701;28;20572;-66
2021/11/08 18:15:46;;;;;;;6.33;4.00;;;18.10;62.50;;;;;;10411724;28;20236;-66
2021/11/08 18:21:16;;;;;;;4.63;2.73;;;18.20;62.30;;;;;;10414814;28;20217;-66
2021/11/08 18:26:54;;;;;;;5.50;2.67;;;18.20;61.90;;;;;;10494072;28;20192;-66
2021/11/08 18:32:16;;;;;;;6.23;3.17;;;18.20;61.40;;;;;;10494184;28;20224;-66
2021/11/08 18:37:39;;;;;;;5.73;3.43;;;18.20;61.00;;;;;;10440632;28;20592;-66
2021/11/08 18:43:03;;;;;;;7.07;3.50;;;18.30;60.70;;;;;;10449140;28;20280;-67
2021/11/08 18:48:25;;;;;;;5.47;3.27;;;18.20;60.60;;;;;;10437376;28;20197;-67
2021/11/08 18:53:48;;;;;;;5.07;3.40;;;18.20;60.50;;;;;;10442759;28;20236;-66
2021/11/08 18:59:14;;;;;;;5.37;2.97;;;18.20;60.40;;;;;;10454625;28;20192;-66
2021/11/08 19:04:41;;;;;;;5.23;2.80;;;18.20;60.50;;;;;;10463398;28;20599;-66
2021/11/08 19:10:03;;;;;;;5.47;3.27;;;18.10;60.70;;;;;;10495743;28;20253;-67
2021/11/08 19:15:28;;;;;;;6.20;2.93;;;18.10;60.50;;;;;;10496793;28;20220;-66
2021/11/08 19:20:50;;;;;;;4.10;2.90;;;18.10;60.40;;;;;;10426825;28;20224;-66
2021/11/08 19:26:13;;;;;;;8.03;5.27;;;18.20;60.50;;;;;;10465236;28;20196;-67
2021/11/08 19:31:36;;;;;;;6.17;3.60;;;18.20;60.50;;;;;;10436351;28;20230;-66
2021/11/08 19:42:38;;;;;;;7.40;4.40;;;18.20;60.50;;;;;;10412116;28;20217;-66
2021/11/08 19:48:03;;;;;;;5.43;3.30;;;18.20;60.50;;;;;;10413657;28;20189;-66
2021/11/08 19:53:29;;;;;;;5.33;3.00;;;18.20;60.60;;;;;;10411416;28;20229;-66
2021/11/08 19:58:51;;;;;;;5.60;2.80;;;18.30;60.50;;;;;;10411615;28;20244;-66
2021/11/08 20:04:15;;;;;;;5.80;2.70;;;18.30;60.40;;;;;;10413841;28;20701;-66
2021/11/08 20:09:39;;;;;;;4.40;2.60;;;18.20;60.30;;;;;;10409046;28;20704;-66
2021/11/08 20:15:01;;;;;;;7.47;3.13;;;18.20;60.40;;;;;;10416470;28;20307;-67
2021/11/08 20:20:25;;;;;;;4.20;2.60;;;18.30;60.50;;;;;;10485329;28;20263;-66
2021/11/08 20:25:49;;;;;;;3.87;2.37;;;18.20;60.50;;;;;;10462034;28;20572;-66
2021/11/08 20:31:20;;;;;;;4.23;2.43;;;18.20;60.60;;;;;;10451966;28;20220;-67
2021/11/08 20:42:38;;;;;;;4.83;2.73;;;18.20;60.90;;;;;;10421052;28;20253;-66
2021/11/08 20:48:09;;;;;;;6.80;3.67;;;18.20;61.30;;;;;;10451509;28;20212;-67
2021/11/08 20:53:41;;;;;;;6.13;3.20;;;18.20;61.10;;;;;;10451644;28;20217;-67
2021/11/08 20:59:14;;;;;;;5.03;3.00;;;18.20;60.70;;;;;;10442693;28;20200;-67
2021/11/08 21:04:50;;;;;;;5.53;2.33;;;18.30;61.00;;;;;;10492271;28;20208;-66
2021/11/08 21:16:08;;;;;;;4.63;2.20;;;18.20;60.60;;;;;;10349696;28;20212;-67
2021/11/08 21:21:33;;;;;;;7.17;3.30;;;18.20;60.70;;;;;;10438204;28;20351;-66
2021/11/08 21:26:59;;;;;;;9.10;3.60;;;18.20;60.80;;;;;;10492835;28;20185;-67
2021/11/08 21:32:38;;;;;;;9.67;5.20;;;18.20;60.90;;;;;;10467862;28;20225;-66
2021/11/08 21:38:12;;;;;;;12.90;5.67;;;18.20;60.70;;;;;;10453882;28;20295;-66
2021/11/08 21:43:36;;;;;;;14.87;7.17;;;18.30;60.70;;;;;;10436894;28;20651;-66
2021/11/08 21:48:58;;;;;;;20.20;7.73;;;18.30;60.70;;;;;;10433954;28;20193;-67
2021/11/08 21:54:21;;;;;;;20.27;8.07;;;18.20;60.70;;;;;;10433321;28;20228;-67
2021/11/08 21:59:46;;;;;;;14.07;6.17;;;18.20;60.90;;;;;;10436303;28;20196;-67
2021/11/08 22:05:09;;;;;;;14.60;6.03;;;18.10;61.20;;;;;;10436105;28;20699;-66
2021/11/08 22:10:32;;;;;;;19.80;8.20;;;18.10;61.50;;;;;;10432419;28;20198;-66
2021/11/08 22:15:55;;;;;;;17.13;7.97;;;18.00;61.70;;;;;;10437347;28;20700;-67
2021/11/08 22:21:19;;;;;;;17.50;7.10;;;17.90;61.90;;;;;;10417311;28;20213;-67
2021/11/08 22:26:42;;;;;;;11.80;6.43;;;17.90;62.10;;;;;;10494520;28;20297;-67
2021/11/08 22:32:07;;;;;;;13.17;6.90;;;17.90;62.20;;;;;;10474928;28;20228;-67
2021/11/08 22:37:29;;;;;;;10.70;5.60;;;17.80;62.40;;;;;;10457971;28;20687;-67
2021/11/08 22:42:51;;;;;;;14.77;6.27;;;17.80;62.50;;;;;;10415664;28;20218;-67
2021/11/08 22:48:15;;;;;;;11.43;6.27;;;17.80;62.50;;;;;;10414094;28;20198;-67
2021/11/08 22:53:37;;;;;;;10.73;5.33;;;17.80;62.40;;;;;;10413813;28;20225;-66
2021/11/08 22:59:00;;;;;;;12.53;5.40;;;17.80;62.40;;;;;;10415337;28;20220;-67
2021/11/08 23:04:23;;;;;;;10.50;4.60;;;17.80;62.40;;;;;;10414471;28;20240;-66
2021/11/08 23:09:46;;;;;;;7.67;4.60;;;17.70;62.40;;;;;;10456325;28;20201;-67
2021/11/08 23:15:09;;;;;;;10.17;4.43;;;17.70;62.50;;;;;;10434810;28;20692;-66
2021/11/08 23:20:33;;;;;;;7.90;3.40;;;17.70;62.70;;;;;;10438592;28;20197;-67
2021/11/08 23:25:56;;;;;;;9.07;4.00;;;17.70;62.60;;;;;;10488044;28;20290;-67
2021/11/08 23:31:39;;;;;;;7.07;3.17;;;17.80;62.50;;;;;;10488828;28;20512;-66
2021/11/08 23:37:03;;;;;;;7.07;3.43;;;17.70;62.30;;;;;;10250410;28;20660;-63
2021/11/08 23:42:25;;;;;;;7.07;3.57;;;17.70;62.40;;;;;;10241373;28;20196;-64
2021/11/08 23:47:48;;;;;;;8.03;2.93;;;17.70;62.50;;;;;;10219373;28;20221;-64
2021/11/08 23:53:11;;;;;;;9.37;3.27;;;17.70;62.50;;;;;;10224615;28;20204;-64
2021/11/08 23:58:34;;;;;;;7.27;2.77;;;17.70;63.30;;;;;;10246817;28;20227;-64
